CheckWX is a tool to help pilots better visualize weather data.  It is not intended as a substitute for an official pre-flight weather briefing.

06:44:45 UTC

CYPY METAR
Fort Chipewyan Airport
Fort Chipewyan, Canada
Current

45 mins ago

CYPY 210600Z AUTO 07005KT 9SM CLR 10/05 A2990 RMK SLP134
Observed
May-21 @ 06:00 UTC
Wind
  • 070° at 5 KTS
Visibility
9 SM
Flight Rules
VFR
Cloud Levels
  • Clear skies
Temperature
10°C / 50°F
Dewpoint
C / 41°F
Humidity
71%
Altimeter
29.9" Hg
Pressure
1012.52 hPa
Previous

2 hours ago

CYPY 210500Z AUTO 05003KT 9SM CLR 11/04 A2990 RMK SLP133
Observed
May-21 @ 05:00 UTC
Wind
  • 050° at 3 KTS
Visibility
9 SM
Flight Rules
VFR
Cloud Levels
  • Clear skies
Temperature
11°C / 52°F
Dewpoint
C / 39°F
Humidity
62%
Altimeter
29.9" Hg
Pressure
1012.52 hPa
Previous

3 hours ago

CYPY 210400Z AUTO 08002KT 9SM CLR 15/03 A2990 RMK SLP131 DENSITY ALT 900FT
Observed
May-21 @ 04:00 UTC
Wind
  • 080° at 2 KTS
Visibility
9 SM
Flight Rules
VFR
Cloud Levels
  • Clear skies
Temperature
15°C / 59°F
Dewpoint
C / 37°F
Humidity
45%
Altimeter
29.9" Hg
Pressure
1012.52 hPa